Newmarket on Fergus, Ireland
Current Conditions -  °F | °C
As of 8:00 PM on Sunday 23 Nov 2014 (Local Time) from EINN Reporting Station
Few Clouds Few Clouds  
Wind Chill: 41°   Ceiling: Unl
Heat Index: 41°   Visibility: 6mi
Dew Point: 37°   Wind: 3mph
Humidity: 87%   Direction: 170°S
Pressure: 30.18"   Gusts: NA
Location:  52.76°N, 8.9°W
Report Text: EINN 232000Z 17003KT 9999 FEW018CB 05/03 Q1022 NOSIG
Loading
Personal Weather Stations






























Interactive Weather Map New forecast layout! Learn more

10-Day Weather Forecast

Advertisements
Track Severe Weather on mobile